sensor_id;sensor_type;location;lat;lon;timestamp;pressure;altitude;pressure_sealevel;temperature;humidity
80164;BME280;69489;55.130;61.268;2023-04-23T00:01:20;97132.56;;;12.27;58.97
80164;BME280;69489;55.130;61.268;2023-04-23T00:03:50;97138.69;;;12.28;58.32
80164;BME280;69489;55.130;61.268;2023-04-23T00:06:17;97119.09;;;12.17;58.83
80164;BME280;69489;55.130;61.268;2023-04-23T00:08:46;97123.94;;;12.20;58.40
80164;BME280;69489;55.130;61.268;2023-04-23T00:11:12;97142.47;;;12.32;58.52
80164;BME280;69489;55.130;61.268;2023-04-23T00:13:39;97134.91;;;12.24;58.79
80164;BME280;69489;55.130;61.268;2023-04-23T00:16:06;97147.25;;;12.30;58.34
80164;BME280;69489;55.130;61.268;2023-04-23T00:18:32;97144.81;;;12.29;58.64
80164;BME280;69489;55.130;61.268;2023-04-23T00:20:58;97130.38;;;12.24;58.56
80164;BME280;69489;55.130;61.268;2023-04-23T00:23:25;97132.25;;;12.24;58.73
80164;BME280;69489;55.130;61.268;2023-04-23T00:25:51;97107.84;;;12.10;58.69
80164;BME280;69489;55.130;61.268;2023-04-23T00:28:16;97126.84;;;12.19;58.38
80164;BME280;69489;55.130;61.268;2023-04-23T00:30:42;97142.66;;;12.25;58.50
80164;BME280;69489;55.130;61.268;2023-04-23T00:33:08;97144.47;;;12.25;58.85
80164;BME280;69489;55.130;61.268;2023-04-23T00:35:34;97122.41;;;12.07;58.37
80164;BME280;69489;55.130;61.268;2023-04-23T00:38:00;97146.59;;;12.23;58.36
80164;BME280;69489;55.130;61.268;2023-04-23T00:40:26;97128.38;;;12.15;58.94
80164;BME280;69489;55.130;61.268;2023-04-23T00:42:52;97127.56;;;12.14;58.58
80164;BME280;69489;55.130;61.268;2023-04-23T00:45:19;97118.69;;;12.08;58.65
80164;BME280;69489;55.130;61.268;2023-04-23T00:47:45;97147.06;;;12.20;58.91
80164;BME280;69489;55.130;61.268;2023-04-23T00:50:11;97129.31;;;12.08;58.82
80164;BME280;69489;55.130;61.268;2023-04-23T00:52:39;97136.25;;;12.09;58.78
80164;BME280;69489;55.130;61.268;2023-04-23T00:55:05;97140.78;;;12.26;58.89
80164;BME280;69489;55.130;61.268;2023-04-23T00:57:31;97140.59;;;12.16;58.54
80164;BME280;69489;55.130;61.268;2023-04-23T00:59:58;97142.53;;;12.03;58.75
80164;BME280;69489;55.130;61.268;2023-04-23T01:02:25;97154.78;;;12.04;58.99
80164;BME280;69489;55.130;61.268;2023-04-23T01:04:55;97155.97;;;11.97;59.15
80164;BME280;69489;55.130;61.268;2023-04-23T01:07:21;97151.81;;;11.89;59.36
80164;BME280;69489;55.130;61.268;2023-04-23T01:09:49;97157.38;;;11.87;59.17
80164;BME280;69489;55.130;61.268;2023-04-23T01:12:16;97164.19;;;11.83;59.10
80164;BME280;69489;55.130;61.268;2023-04-23T01:14:47;97157.75;;;11.79;59.52
80164;BME280;69489;55.130;61.268;2023-04-23T01:17:13;97147.75;;;11.69;59.39
80164;BME280;69489;55.130;61.268;2023-04-23T01:19:40;97145.88;;;11.70;59.62
80164;BME280;69489;55.130;61.268;2023-04-23T01:22:24;97158.44;;;11.74;59.50
80164;BME280;69489;55.130;61.268;2023-04-23T01:24:51;97120.28;;;11.52;58.89
80164;BME280;69489;55.130;61.268;2023-04-23T01:27:17;97131.28;;;11.55;59.34
80164;BME280;69489;55.130;61.268;2023-04-23T01:29:45;97114.78;;;11.42;59.60
80164;BME280;69489;55.130;61.268;2023-04-23T01:32:12;97136.00;;;11.53;59.37
80164;BME280;69489;55.130;61.268;2023-04-23T01:34:40;97155.13;;;11.67;59.58
80164;BME280;69489;55.130;61.268;2023-04-23T01:37:08;97157.78;;;11.67;59.52
80164;BME280;69489;55.130;61.268;2023-04-23T01:39:34;97147.22;;;11.55;59.60
80164;BME280;69489;55.130;61.268;2023-04-23T01:42:01;97153.53;;;11.66;59.39
80164;BME280;69489;55.130;61.268;2023-04-23T01:44:28;97154.66;;;11.70;59.52
80164;BME280;69489;55.130;61.268;2023-04-23T01:46:54;97155.97;;;11.56;60.01
80164;BME280;69489;55.130;61.268;2023-04-23T01:49:22;97162.22;;;11.62;60.00
80164;BME280;69489;55.130;61.268;2023-04-23T01:51:48;97163.47;;;11.59;59.85
80164;BME280;69489;55.130;61.268;2023-04-23T01:54:14;97164.03;;;11.61;60.03
80164;BME280;69489;55.130;61.268;2023-04-23T01:56:40;97156.31;;;11.60;60.32
80164;BME280;69489;55.130;61.268;2023-04-23T01:59:49;97162.06;;;11.68;60.13
80164;BME280;69489;55.130;61.268;2023-04-23T02:02:57;97165.75;;;11.67;60.06
80164;BME280;69489;55.130;61.268;2023-04-23T02:05:24;97161.03;;;11.69;60.19
80164;BME280;69489;55.130;61.268;2023-04-23T02:07:53;97145.78;;;11.65;60.23
80164;BME280;69489;55.130;61.268;2023-04-23T02:10:20;97139.88;;;11.63;60.27
80164;BME280;69489;55.130;61.268;2023-04-23T02:12:46;97150.63;;;11.68;60.28
80164;BME280;69489;55.130;61.268;2023-04-23T02:15:13;97160.56;;;11.72;60.48
80164;BME280;69489;55.130;61.268;2023-04-23T02:17:40;97152.00;;;11.70;60.82
80164;BME280;69489;55.130;61.268;2023-04-23T02:20:08;97144.59;;;11.72;60.35
80164;BME280;69489;55.130;61.268;2023-04-23T02:22:35;97158.88;;;11.83;60.30
80164;BME280;69489;55.130;61.268;2023-04-23T02:25:02;97151.94;;;11.82;60.05
80164;BME280;69489;55.130;61.268;2023-04-23T02:27:29;97146.38;;;11.96;59.28
80164;BME280;69489;55.130;61.268;2023-04-23T02:30:00;97139.56;;;11.88;59.57
80164;BME280;69489;55.130;61.268;2023-04-23T02:32:28;97138.22;;;11.73;60.22
80164;BME280;69489;55.130;61.268;2023-04-23T02:35:14;97160.59;;;11.89;60.12
80164;BME280;69489;55.130;61.268;2023-04-23T02:37:51;97152.91;;;11.76;60.54
80164;BME280;69489;55.130;61.268;2023-04-23T02:40:19;97159.41;;;11.68;60.86
80164;BME280;69489;55.130;61.268;2023-04-23T02:42:45;97160.78;;;11.71;61.08
80164;BME280;69489;55.130;61.268;2023-04-23T02:45:11;97153.41;;;11.61;61.05
80164;BME280;69489;55.130;61.268;2023-04-23T02:47:37;97175.09;;;11.70;61.07
80164;BME280;69489;55.130;61.268;2023-04-23T02:50:04;97177.00;;;11.58;61.36
80164;BME280;69489;55.130;61.268;2023-04-23T02:52:37;97178.25;;;11.55;61.49
80164;BME280;69489;55.130;61.268;2023-04-23T02:55:04;97183.94;;;11.59;61.52
80164;BME280;69489;55.130;61.268;2023-04-23T02:57:31;97182.16;;;11.64;61.82
80164;BME280;69489;55.130;61.268;2023-04-23T02:59:57;97178.44;;;11.77;60.88
80164;BME280;69489;55.130;61.268;2023-04-23T03:02:23;97165.22;;;11.53;61.37
80164;BME280;69489;55.130;61.268;2023-04-23T03:04:49;97190.97;;;11.65;61.59
80164;BME280;69489;55.130;61.268;2023-04-23T03:07:18;97198.88;;;11.77;61.58
80164;BME280;69489;55.130;61.268;2023-04-23T03:09:50;97186.47;;;11.53;61.81
80164;BME280;69489;55.130;61.268;2023-04-23T04:47:49;97266.88;;;12.42;58.72
80164;BME280;69489;55.130;61.268;2023-04-23T04:50:16;97265.09;;;12.48;57.68
80164;BME280;69489;55.130;61.268;2023-04-23T04:52:42;97269.63;;;12.64;57.33
80164;BME280;69489;55.130;61.268;2023-04-23T04:55:08;97277.50;;;12.71;57.22
80164;BME280;69489;55.130;61.268;2023-04-23T04:57:37;97277.75;;;12.86;56.41
80164;BME280;69489;55.130;61.268;2023-04-23T05:00:22;97288.88;;;12.83;56.81
80164;BME280;69489;55.130;61.268;2023-04-23T05:02:49;97285.78;;;12.74;57.19
80164;BME280;69489;55.130;61.268;2023-04-23T05:05:15;97271.81;;;12.67;57.20
80164;BME280;69489;55.130;61.268;2023-04-23T05:07:43;97290.47;;;12.84;56.74
80164;BME280;69489;55.130;61.268;2023-04-23T05:10:10;97280.78;;;12.78;57.02
80164;BME280;69489;55.130;61.268;2023-04-23T05:12:36;97303.88;;;12.89;56.25
80164;BME280;69489;55.130;61.268;2023-04-23T05:15:07;97285.38;;;12.83;56.30
80164;BME280;69489;55.130;61.268;2023-04-23T05:17:49;97302.59;;;13.09;56.55
80164;BME280;69489;55.130;61.268;2023-04-23T05:20:17;97294.69;;;12.97;56.47
80164;BME280;69489;55.130;61.268;2023-04-23T05:22:43;97303.66;;;13.08;56.37
80164;BME280;69489;55.130;61.268;2023-04-23T05:25:10;97302.25;;;13.22;55.53
80164;BME280;69489;55.130;61.268;2023-04-23T05:27:37;97296.38;;;13.20;55.82
80164;BME280;69489;55.130;61.268;2023-04-23T05:30:05;97297.41;;;13.19;55.40
80164;BME280;69489;55.130;61.268;2023-04-23T05:32:32;97319.56;;;13.37;55.14
80164;BME280;69489;55.130;61.268;2023-04-23T05:35:03;97323.91;;;13.43;55.22
80164;BME280;69489;55.130;61.268;2023-04-23T05:37:30;97298.13;;;13.31;54.90
80164;BME280;69489;55.130;61.268;2023-04-23T05:39:56;97317.63;;;13.49;54.86
80164;BME280;69489;55.130;61.268;2023-04-23T05:42:28;97326.06;;;13.63;54.56
80164;BME280;69489;55.130;61.268;2023-04-23T05:44:57;97282.81;;;13.39;54.51
80164;BME280;69489;55.130;61.268;2023-04-23T05:47:26;97315.56;;;13.73;53.83
80164;BME280;69489;55.130;61.268;2023-04-23T05:49:51;97296.09;;;13.73;54.26
80164;BME280;69489;55.130;61.268;2023-04-23T05:52:17;97331.81;;;13.94;53.94
80164;BME280;69489;55.130;61.268;2023-04-23T05:54:43;97310.88;;;13.80;53.02
80164;BME280;69489;55.130;61.268;2023-04-23T05:57:10;97300.59;;;13.72;53.31
80164;BME280;69489;55.130;61.268;2023-04-23T05:59:37;97327.84;;;13.96;53.63
80164;BME280;69489;55.130;61.268;2023-04-23T06:02:03;97348.38;;;13.96;53.24
80164;BME280;69489;55.130;61.268;2023-04-23T06:04:28;97328.03;;;13.90;52.64
80164;BME280;69489;55.130;61.268;2023-04-23T06:06:54;97320.41;;;13.76;53.07
80164;BME280;69489;55.130;61.268;2023-04-23T06:09:20;97354.00;;;13.77;52.86
80164;BME280;69489;55.130;61.268;2023-04-23T06:11:46;97361.66;;;13.74;53.63
80164;BME280;69489;55.130;61.268;2023-04-23T06:14:15;97356.44;;;13.62;53.78
80164;BME280;69489;55.130;61.268;2023-04-23T06:16:45;97361.50;;;13.80;53.52
80164;BME280;69489;55.130;61.268;2023-04-23T06:19:14;97376.09;;;13.95;52.88
80164;BME280;69489;55.130;61.268;2023-04-23T06:21:42;97355.66;;;14.00;52.07
80164;BME280;69489;55.130;61.268;2023-04-23T06:24:08;97376.84;;;13.90;51.84
80164;BME280;69489;55.130;61.268;2023-04-23T06:26:34;97376.19;;;14.00;52.08
80164;BME280;69489;55.130;61.268;2023-04-23T06:29:02;97360.50;;;14.03;52.00
80164;BME280;69489;55.130;61.268;2023-04-23T06:31:28;97377.38;;;14.09;52.00
80164;BME280;69489;55.130;61.268;2023-04-23T06:33:54;97375.31;;;14.16;52.04
80164;BME280;69489;55.130;61.268;2023-04-23T06:36:20;97357.63;;;13.88;52.14
80164;BME280;69489;55.130;61.268;2023-04-23T06:38:49;97390.22;;;14.12;52.83
80164;BME280;69489;55.130;61.268;2023-04-23T06:41:15;97369.28;;;13.82;52.81
80164;BME280;69489;55.130;61.268;2023-04-23T06:43:44;97387.25;;;13.92;52.39
80164;BME280;69489;55.130;61.268;2023-04-23T06:46:13;97352.53;;;13.19;53.06
80164;BME280;69489;55.130;61.268;2023-04-23T06:48:42;97401.50;;;13.63;53.27
80164;BME280;69489;55.130;61.268;2023-04-23T06:51:08;97407.19;;;14.06;52.42
80164;BME280;69489;55.130;61.268;2023-04-23T07:15:29;97411.66;;;14.00;51.35
80164;BME280;69489;55.130;61.268;2023-04-23T07:21:57;97419.25;;;14.31;51.03
80164;BME280;69489;55.130;61.268;2023-04-23T07:32:59;97409.06;;;13.89;51.07
80164;BME280;69489;55.130;61.268;2023-04-23T07:35:39;97462.75;;;14.31;51.13
80164;BME280;69489;55.130;61.268;2023-04-23T07:38:07;97465.75;;;14.35;51.07
80164;BME280;69489;55.130;61.268;2023-04-23T07:41:01;97444.75;;;14.21;50.97
80164;BME280;69489;55.130;61.268;2023-04-23T07:43:50;97440.56;;;14.09;51.16
80164;BME280;69489;55.130;61.268;2023-04-23T07:46:16;97444.22;;;14.02;51.42
80164;BME280;69489;55.130;61.268;2023-04-23T07:48:47;97464.78;;;14.24;51.25
80164;BME280;69489;55.130;61.268;2023-04-23T07:51:16;97472.69;;;14.36;51.30
80164;BME280;69489;55.130;61.268;2023-04-23T07:53:47;97447.34;;;14.16;51.07
80164;BME280;69489;55.130;61.268;2023-04-23T07:56:38;97481.56;;;14.42;51.07
80164;BME280;69489;55.130;61.268;2023-04-23T07:59:32;97435.22;;;14.26;50.01
80164;BME280;69489;55.130;61.268;2023-04-23T08:01:58;97496.34;;;14.49;50.16
80164;BME280;69489;55.130;61.268;2023-04-23T08:04:24;97467.47;;;14.07;50.18
80164;BME280;69489;55.130;61.268;2023-04-23T08:06:53;97492.78;;;14.04;50.74
80164;BME280;69489;55.130;61.268;2023-04-23T08:09:21;97485.81;;;14.20;51.29
80164;BME280;69489;55.130;61.268;2023-04-23T08:11:47;97470.72;;;14.09;50.98
80164;BME280;69489;55.130;61.268;2023-04-23T08:14:13;97468.75;;;14.21;50.83
80164;BME280;69489;55.130;61.268;2023-04-23T08:16:39;97468.91;;;14.32;50.83
80164;BME280;69489;55.130;61.268;2023-04-23T08:19:05;97469.31;;;14.24;50.63
80164;BME280;69489;55.130;61.268;2023-04-23T08:21:32;97470.31;;;14.17;50.72
80164;BME280;69489;55.130;61.268;2023-04-23T08:24:04;97506.69;;;14.07;50.69
80164;BME280;69489;55.130;61.268;2023-04-23T08:26:32;97475.16;;;13.53;51.54
80164;BME280;69489;55.130;61.268;2023-04-23T08:28:58;97466.41;;;13.40;52.22
80164;BME280;69489;55.130;61.268;2023-04-23T08:31:27;97510.88;;;13.11;53.07
80164;BME280;69489;55.130;61.268;2023-04-23T08:33:54;97508.75;;;13.25;53.17
80164;BME280;69489;55.130;61.268;2023-04-23T08:36:19;97510.59;;;12.84;54.68
80164;BME280;69489;55.130;61.268;2023-04-23T08:38:45;97522.09;;;12.72;55.38
80164;BME280;69489;55.130;61.268;2023-04-23T08:41:21;97515.16;;;12.59;55.95
80164;BME280;69489;55.130;61.268;2023-04-23T08:44:16;97524.06;;;12.53;56.35
80164;BME280;69489;55.130;61.268;2023-04-23T08:46:43;97523.63;;;12.21;57.67
80164;BME280;69489;55.130;61.268;2023-04-23T08:49:14;97514.03;;;12.20;57.75
80164;BME280;69489;55.130;61.268;2023-04-23T08:51:48;97503.81;;;11.93;58.42
80164;BME280;69489;55.130;61.268;2023-04-23T08:54:25;97535.19;;;12.38;57.29
80164;BME280;69489;55.130;61.268;2023-04-23T08:56:55;97502.22;;;12.16;57.19
80164;BME280;69489;55.130;61.268;2023-04-23T09:03:02;97512.84;;;12.63;57.43
80164;BME280;69489;55.130;61.268;2023-04-23T09:05:31;97541.13;;;13.05;56.28
80164;BME280;69489;55.130;61.268;2023-04-23T09:07:58;97520.47;;;12.83;58.58
80164;BME280;69489;55.130;61.268;2023-04-23T09:10:24;97526.97;;;12.75;60.10
80164;BME280;69489;55.130;61.268;2023-04-23T09:12:50;97502.00;;;12.53;60.79
80164;BME280;69489;55.130;61.268;2023-04-23T09:15:16;97544.28;;;12.90;60.26
80164;BME280;69489;55.130;61.268;2023-04-23T09:17:44;97540.91;;;12.83;60.11
80164;BME280;69489;55.130;61.268;2023-04-23T09:20:14;97499.06;;;12.66;59.99
80164;BME280;69489;55.130;61.268;2023-04-23T09:23:07;97567.03;;;13.09;59.84
80164;BME280;69489;55.130;61.268;2023-04-23T09:29:04;97556.38;;;13.09;59.24
80164;BME280;69489;55.130;61.268;2023-04-23T09:32:15;97536.13;;;13.08;58.66
80164;BME280;69489;55.130;61.268;2023-04-23T09:34:41;97516.50;;;12.86;59.41
80164;BME280;69489;55.130;61.268;2023-04-23T09:40:36;97562.25;;;13.35;58.13
80164;BME280;69489;55.130;61.268;2023-04-23T09:43:09;97592.16;;;13.54;58.91
80164;BME280;69489;55.130;61.268;2023-04-23T09:45:47;97570.56;;;13.39;58.95
80164;BME280;69489;55.130;61.268;2023-04-23T09:48:13;97576.00;;;13.32;57.46
80164;BME280;69489;55.130;61.268;2023-04-23T09:50:39;97582.22;;;13.49;56.53
80164;BME280;69489;55.130;61.268;2023-04-23T09:53:07;97587.25;;;13.34;56.73
80164;BME280;69489;55.130;61.268;2023-04-23T09:55:35;97585.84;;;13.43;56.83
80164;BME280;69489;55.130;61.268;2023-04-23T09:58:11;97600.47;;;13.41;56.85
80164;BME280;69489;55.130;61.268;2023-04-23T10:00:38;97582.38;;;13.31;56.15
80164;BME280;69489;55.130;61.268;2023-04-23T10:03:07;97590.03;;;13.39;56.25
80164;BME280;69489;55.130;61.268;2023-04-23T10:05:43;97582.03;;;13.39;56.41
80164;BME280;69489;55.130;61.268;2023-04-23T10:08:09;97593.28;;;13.29;55.83
80164;BME280;69489;55.130;61.268;2023-04-23T10:10:35;97610.41;;;13.45;55.20
80164;BME280;69489;55.130;61.268;2023-04-23T10:13:01;97587.41;;;13.15;56.41
80164;BME280;69489;55.130;61.268;2023-04-23T10:15:27;97611.03;;;13.12;56.22
80164;BME280;69489;55.130;61.268;2023-04-23T10:17:54;97614.25;;;13.26;56.13
80164;BME280;69489;55.130;61.268;2023-04-23T10:20:21;97611.44;;;13.32;55.93
80164;BME280;69489;55.130;61.268;2023-04-23T10:22:47;97583.59;;;13.11;55.71
80164;BME280;69489;55.130;61.268;2023-04-23T10:25:14;97620.84;;;13.35;56.13
80164;BME280;69489;55.130;61.268;2023-04-23T10:27:42;97617.59;;;13.33;56.05
80164;BME280;69489;55.130;61.268;2023-04-23T10:30:15;97630.09;;;13.44;56.44
80164;BME280;69489;55.130;61.268;2023-04-23T10:32:41;97625.81;;;13.43;56.24
80164;BME280;69489;55.130;61.268;2023-04-23T10:35:08;97628.38;;;13.38;55.90
80164;BME280;69489;55.130;61.268;2023-04-23T10:37:35;97637.22;;;13.56;56.04
80164;BME280;69489;55.130;61.268;2023-04-23T10:40:09;97622.53;;;13.53;55.80
80164;BME280;69489;55.130;61.268;2023-04-23T10:42:39;97651.06;;;13.81;55.30
80164;BME280;69489;55.130;61.268;2023-04-23T10:45:16;97662.47;;;13.94;54.79
80164;BME280;69489;55.130;61.268;2023-04-23T10:47:43;97643.13;;;13.98;53.84
80164;BME280;69489;55.130;61.268;2023-04-23T10:50:27;97640.78;;;14.36;53.45
80164;BME280;69489;55.130;61.268;2023-04-23T10:52:55;97603.53;;;14.41;52.55
80164;BME280;69489;55.130;61.268;2023-04-23T10:55:41;97636.13;;;14.94;51.21
80164;BME280;69489;55.130;61.268;2023-04-23T10:58:12;97587.53;;;14.97;51.41
80164;BME280;69489;55.130;61.268;2023-04-23T14:21:51;97783.56;;;26.60;23.54
80164;BME280;69489;55.130;61.268;2023-04-23T14:27:17;97792.19;;;26.63;23.09
80164;BME280;69489;55.130;61.268;2023-04-23T14:29:45;97793.69;;;26.69;22.52
80164;BME280;69489;55.130;61.268;2023-04-23T14:32:15;97786.44;;;26.38;23.35
80164;BME280;69489;55.130;61.268;2023-04-23T14:34:40;97794.41;;;26.26;22.84
80164;BME280;69489;55.130;61.268;2023-04-23T14:37:28;97794.47;;;25.63;23.66
80164;BME280;69489;55.130;61.268;2023-04-23T14:39:55;97798.28;;;25.08;24.42
80164;BME280;69489;55.130;61.268;2023-04-23T14:42:21;97801.63;;;24.82;24.03
80164;BME280;69489;55.130;61.268;2023-04-23T14:45:09;97804.84;;;24.20;24.69
80164;BME280;69489;55.130;61.268;2023-04-23T14:48:18;97791.66;;;23.71;25.21
80164;BME280;69489;55.130;61.268;2023-04-23T14:51:24;97787.59;;;23.27;25.89
80164;BME280;69489;55.130;61.268;2023-04-23T14:53:56;97803.72;;;22.99;27.08
80164;BME280;69489;55.130;61.268;2023-04-23T14:56:25;97801.47;;;22.49;27.49
80164;BME280;69489;55.130;61.268;2023-04-23T14:59:12;97808.81;;;22.00;27.97
80164;BME280;69489;55.130;61.268;2023-04-23T15:02:07;97813.47;;;21.71;28.17
80164;BME280;69489;55.130;61.268;2023-04-23T15:04:34;97758.44;;;21.08;28.82
80164;BME280;69489;55.130;61.268;2023-04-23T15:07:02;97813.34;;;21.22;29.08
80164;BME280;69489;55.130;61.268;2023-04-23T15:09:47;97759.59;;;20.62;29.00
80164;BME280;69489;55.130;61.268;2023-04-23T15:15:54;97803.41;;;20.28;29.83
80164;BME280;69489;55.130;61.268;2023-04-23T15:18:43;97812.97;;;20.00;30.45
80164;BME280;69489;55.130;61.268;2023-04-23T15:21:12;97796.88;;;19.64;31.11
80164;BME280;69489;55.130;61.268;2023-04-23T15:23:39;97830.25;;;19.68;31.29
80164;BME280;69489;55.130;61.268;2023-04-23T15:26:07;97831.09;;;19.43;31.95
80164;BME280;69489;55.130;61.268;2023-04-23T15:28:36;97831.38;;;19.15;32.41
80164;BME280;69489;55.130;61.268;2023-04-23T15:31:07;97808.69;;;18.70;33.00
80164;BME280;69489;55.130;61.268;2023-04-23T15:33:34;97805.13;;;18.34;33.47
80164;BME280;69489;55.130;61.268;2023-04-23T15:36:00;97842.41;;;18.25;34.00
80164;BME280;69489;55.130;61.268;2023-04-23T15:38:27;97834.31;;;18.09;34.11
80164;BME280;69489;55.130;61.268;2023-04-23T15:40:54;97842.94;;;18.22;34.06
80164;BME280;69489;55.130;61.268;2023-04-23T15:43:21;97845.28;;;17.98;34.67
80164;BME280;69489;55.130;61.268;2023-04-23T15:45:46;97808.44;;;17.50;34.97
80164;BME280;69489;55.130;61.268;2023-04-23T15:48:15;97831.69;;;17.34;35.84
80164;BME280;69489;55.130;61.268;2023-04-23T15:50:48;97828.00;;;17.46;35.12
80164;BME280;69489;55.130;61.268;2023-04-23T15:53:17;97853.59;;;17.26;36.10
80164;BME280;69489;55.130;61.268;2023-04-23T15:55:50;97803.88;;;16.81;36.17
80164;BME280;69489;55.130;61.268;2023-04-23T15:58:18;97802.38;;;16.63;36.85
80164;BME280;69489;55.130;61.268;2023-04-23T16:00:44;97815.16;;;16.56;37.17
80164;BME280;69489;55.130;61.268;2023-04-23T16:03:10;97867.06;;;16.55;37.83
80164;BME280;69489;55.130;61.268;2023-04-23T16:05:37;97856.56;;;16.48;37.99
80164;BME280;69489;55.130;61.268;2023-04-23T16:08:09;97832.38;;;16.15;38.42
80164;BME280;69489;55.130;61.268;2023-04-23T16:10:36;97865.47;;;16.31;38.60
80164;BME280;69489;55.130;61.268;2023-04-23T16:13:14;97857.50;;;16.14;39.02
80164;BME280;69489;55.130;61.268;2023-04-23T16:15:40;97855.13;;;16.18;38.70
80164;BME280;69489;55.130;61.268;2023-04-23T16:18:06;97852.88;;;16.32;38.01
80164;BME280;69489;55.130;61.268;2023-04-23T16:20:32;97872.63;;;16.26;38.80
80164;BME280;69489;55.130;61.268;2023-04-23T16:22:58;97857.38;;;16.26;38.43
80164;BME280;69489;55.130;61.268;2023-04-23T16:25:26;97836.25;;;16.08;38.32
80164;BME280;69489;55.130;61.268;2023-04-23T16:27:54;97852.06;;;16.09;38.79
80164;BME280;69489;55.130;61.268;2023-04-23T16:30:20;97859.63;;;16.12;39.05
80164;BME280;69489;55.130;61.268;2023-04-23T16:32:53;97881.06;;;15.95;39.76
80164;BME280;69489;55.130;61.268;2023-04-23T16:35:25;97869.66;;;15.83;39.78
80164;BME280;69489;55.130;61.268;2023-04-23T16:37:54;97874.66;;;15.96;39.78
80164;BME280;69489;55.130;61.268;2023-04-23T16:40:31;97851.97;;;15.65;39.69
80164;BME280;69489;55.130;61.268;2023-04-23T16:42:58;97865.84;;;15.62;39.75
80164;BME280;69489;55.130;61.268;2023-04-23T16:45:24;97876.84;;;15.49;40.72
80164;BME280;69489;55.130;61.268;2023-04-23T16:47:50;97879.88;;;15.52;40.94
80164;BME280;69489;55.130;61.268;2023-04-23T16:50:16;97882.94;;;15.44;40.89
80164;BME280;69489;55.130;61.268;2023-04-23T16:52:42;97886.09;;;15.41;40.74
80164;BME280;69489;55.130;61.268;2023-04-23T16:55:13;97877.16;;;15.18;41.54
80164;BME280;69489;55.130;61.268;2023-04-23T16:57:39;97886.97;;;15.13;42.08
80164;BME280;69489;55.130;61.268;2023-04-23T17:00:07;97877.97;;;15.02;42.29
80164;BME280;69489;55.130;61.268;2023-04-23T17:02:40;97890.31;;;15.20;41.34
80164;BME280;69489;55.130;61.268;2023-04-23T17:05:11;97895.75;;;15.25;41.86
80164;BME280;69489;55.130;61.268;2023-04-23T17:07:39;97861.22;;;14.89;42.10
80164;BME280;69489;55.130;61.268;2023-04-23T17:10:09;97838.44;;;14.58;42.60
80164;BME280;69489;55.130;61.268;2023-04-23T17:12:44;97901.69;;;15.15;41.53
80164;BME280;69489;55.130;61.268;2023-04-23T17:15:10;97916.63;;;15.28;41.63
80164;BME280;69489;55.130;61.268;2023-04-23T17:17:36;97853.06;;;14.55;42.19
80164;BME280;69489;55.130;61.268;2023-04-23T17:20:06;97903.63;;;14.74;42.92
80164;BME280;69489;55.130;61.268;2023-04-23T17:22:33;97901.88;;;14.80;42.66
80164;BME280;69489;55.130;61.268;2023-04-23T17:24:59;97910.28;;;14.71;42.64
80164;BME280;69489;55.130;61.268;2023-04-23T17:27:27;97899.28;;;14.85;42.28
80164;BME280;69489;55.130;61.268;2023-04-23T17:29:53;97868.78;;;14.81;42.05
80164;BME280;69489;55.130;61.268;2023-04-23T17:32:28;97893.03;;;14.91;41.77
80164;BME280;69489;55.130;61.268;2023-04-23T17:34:54;97931.00;;;15.10;41.77
80164;BME280;69489;55.130;61.268;2023-04-23T17:37:20;97920.97;;;14.71;42.93
80164;BME280;69489;55.130;61.268;2023-04-23T17:39:46;97915.22;;;14.80;42.10
80164;BME280;69489;55.130;61.268;2023-04-23T17:42:15;97898.38;;;14.38;43.52
80164;BME280;69489;55.130;61.268;2023-04-23T17:44:41;97943.50;;;14.64;43.06
80164;BME280;69489;55.130;61.268;2023-04-23T17:47:07;97918.56;;;14.34;43.44
80164;BME280;69489;55.130;61.268;2023-04-23T17:49:35;97920.59;;;14.15;43.53
80164;BME280;69489;55.130;61.268;2023-04-23T17:52:01;97905.94;;;14.18;43.38
80164;BME280;69489;55.130;61.268;2023-04-23T17:54:28;97929.84;;;14.13;44.25
80164;BME280;69489;55.130;61.268;2023-04-23T17:56:54;97932.28;;;14.14;43.91
80164;BME280;69489;55.130;61.268;2023-04-23T17:59:20;97954.09;;;14.11;44.58
80164;BME280;69489;55.130;61.268;2023-04-23T18:01:48;97910.94;;;14.02;44.14
80164;BME280;69489;55.130;61.268;2023-04-23T18:04:14;97924.41;;;13.96;44.28
80164;BME280;69489;55.130;61.268;2023-04-23T18:06:50;97930.19;;;14.16;43.28
80164;BME280;69489;55.130;61.268;2023-04-23T18:09:16;97935.06;;;14.19;43.83
80164;BME280;69489;55.130;61.268;2023-04-23T18:11:44;97896.13;;;13.83;43.78
80164;BME280;69489;55.130;61.268;2023-04-23T18:14:10;97951.53;;;14.16;43.79
80164;BME280;69489;55.130;61.268;2023-04-23T18:16:36;97963.59;;;14.07;43.91
80164;BME280;69489;55.130;61.268;2023-04-23T18:19:02;97936.13;;;13.95;43.52
80164;BME280;69489;55.130;61.268;2023-04-23T18:22:00;97962.09;;;14.11;43.54
80164;BME280;69489;55.130;61.268;2023-04-23T18:24:29;97955.28;;;14.15;43.12
80164;BME280;69489;55.130;61.268;2023-04-23T18:26:55;97952.38;;;14.05;43.56
80164;BME280;69489;55.130;61.268;2023-04-23T18:29:23;97941.13;;;13.91;43.59
80164;BME280;69489;55.130;61.268;2023-04-23T18:31:51;97952.38;;;14.05;43.40
80164;BME280;69489;55.130;61.268;2023-04-23T18:34:21;97979.97;;;13.99;43.93
80164;BME280;69489;55.130;61.268;2023-04-23T18:36:48;97976.72;;;13.97;43.89
80164;BME280;69489;55.130;61.268;2023-04-23T18:39:15;97971.59;;;13.72;44.16
80164;BME280;69489;55.130;61.268;2023-04-23T18:41:40;97968.09;;;13.59;44.16
80164;BME280;69489;55.130;61.268;2023-04-23T18:44:06;97981.13;;;13.37;44.77
80164;BME280;69489;55.130;61.268;2023-04-23T18:46:32;97989.16;;;13.49;44.21
80164;BME280;69489;55.130;61.268;2023-04-23T18:49:04;97979.41;;;13.43;44.04
80164;BME280;69489;55.130;61.268;2023-04-23T18:51:41;97962.16;;;13.45;44.15